sensor_id;sensor_type;location;lat;lon;timestamp;P1;durP1;ratioP1;P2;durP2;ratioP2
44212;SDS011;29882;46.356;17.798;2022-08-30T07:09:49;16.33;;;10.40;;
44212;SDS011;29882;46.356;17.798;2022-08-30T07:12:16;14.55;;;10.27;;
44212;SDS011;29882;46.356;17.798;2022-08-30T07:14:43;13.52;;;11.05;;
44212;SDS011;29882;46.356;17.798;2022-08-30T07:17:11;10.85;;;9.48;;
44212;SDS011;29882;46.356;17.798;2022-08-30T07:20:00;19.15;;;10.95;;
44212;SDS011;29882;46.356;17.798;2022-08-30T07:22:28;12.90;;;10.02;;
44212;SDS011;29882;46.356;17.798;2022-08-30T07:24:55;17.00;;;11.02;;
44212;SDS011;29882;46.356;17.798;2022-08-30T07:27:22;13.18;;;10.10;;
44212;SDS011;29882;46.356;17.798;2022-08-30T07:29:49;12.00;;;10.05;;
44212;SDS011;29882;46.356;17.798;2022-08-30T07:32:16;11.27;;;10.07;;
44212;SDS011;29882;46.356;17.798;2022-08-30T07:34:44;14.38;;;10.02;;
44212;SDS011;29882;46.356;17.798;2022-08-30T07:37:12;12.38;;;10.98;;
44212;SDS011;29882;46.356;17.798;2022-08-30T07:39:44;15.25;;;10.73;;
44212;SDS011;29882;46.356;17.798;2022-08-30T07:42:13;12.23;;;10.02;;
44212;SDS011;29882;46.356;17.798;2022-08-30T07:44:41;11.75;;;9.93;;
44212;SDS011;29882;46.356;17.798;2022-08-30T07:47:09;11.63;;;10.27;;
44212;SDS011;29882;46.356;17.798;2022-08-30T07:49:37;12.80;;;10.32;;
44212;SDS011;29882;46.356;17.798;2022-08-30T07:52:04;14.00;;;10.15;;
44212;SDS011;29882;46.356;17.798;2022-08-30T07:54:31;11.40;;;9.45;;
44212;SDS011;29882;46.356;17.798;2022-08-30T07:56:58;14.13;;;9.63;;
44212;SDS011;29882;46.356;17.798;2022-08-30T07:59:25;14.32;;;12.07;;
44212;SDS011;29882;46.356;17.798;2022-08-30T08:01:52;13.48;;;10.25;;
44212;SDS011;29882;46.356;17.798;2022-08-30T08:04:19;12.63;;;10.88;;
44212;SDS011;29882;46.356;17.798;2022-08-30T08:06:47;13.43;;;10.05;;
44212;SDS011;29882;46.356;17.798;2022-08-30T08:09:14;14.70;;;11.00;;
44212;SDS011;29882;46.356;17.798;2022-08-30T08:11:41;18.02;;;10.93;;
44212;SDS011;29882;46.356;17.798;2022-08-30T08:14:08;16.20;;;11.38;;
44212;SDS011;29882;46.356;17.798;2022-08-30T08:16:36;13.90;;;11.25;;
44212;SDS011;29882;46.356;17.798;2022-08-30T08:19:04;13.43;;;10.35;;
44212;SDS011;29882;46.356;17.798;2022-08-30T08:21:35;11.98;;;9.07;;
44212;SDS011;29882;46.356;17.798;2022-08-30T08:24:02;10.50;;;9.48;;
44212;SDS011;29882;46.356;17.798;2022-08-30T08:26:32;10.23;;;9.15;;
44212;SDS011;29882;46.356;17.798;2022-08-30T08:29:00;12.70;;;10.35;;
44212;SDS011;29882;46.356;17.798;2022-08-30T08:31:27;12.95;;;9.65;;
44212;SDS011;29882;46.356;17.798;2022-08-30T08:33:59;11.60;;;10.40;;
44212;SDS011;29882;46.356;17.798;2022-08-30T08:36:29;14.52;;;10.32;;
44212;SDS011;29882;46.356;17.798;2022-08-30T08:38:57;11.88;;;9.85;;
44212;SDS011;29882;46.356;17.798;2022-08-30T08:44:12;11.48;;;9.40;;
44212;SDS011;29882;46.356;17.798;2022-08-30T08:46:57;12.93;;;10.07;;
44212;SDS011;29882;46.356;17.798;2022-08-30T08:49:50;11.23;;;9.80;;
44212;SDS011;29882;46.356;17.798;2022-08-30T08:52:28;13.60;;;11.02;;
44212;SDS011;29882;46.356;17.798;2022-08-30T08:55:23;11.77;;;9.90;;
44212;SDS011;29882;46.356;17.798;2022-08-30T08:57:51;11.68;;;9.32;;
44212;SDS011;29882;46.356;17.798;2022-08-30T09:00:20;12.07;;;8.88;;
44212;SDS011;29882;46.356;17.798;2022-08-30T09:03:01;10.50;;;9.40;;
44212;SDS011;29882;46.356;17.798;2022-08-30T09:05:36;10.80;;;8.90;;
44212;SDS011;29882;46.356;17.798;2022-08-30T09:08:07;16.25;;;9.55;;
44212;SDS011;29882;46.356;17.798;2022-08-30T09:10:37;12.90;;;9.70;;
44212;SDS011;29882;46.356;17.798;2022-08-30T09:13:16;10.82;;;8.35;;
44212;SDS011;29882;46.356;17.798;2022-08-30T09:15:48;12.15;;;8.32;;
44212;SDS011;29882;46.356;17.798;2022-08-30T09:18:39;12.02;;;9.18;;
44212;SDS011;29882;46.356;17.798;2022-08-30T09:21:11;10.38;;;8.65;;
44212;SDS011;29882;46.356;17.798;2022-08-30T09:23:47;9.82;;;8.82;;
44212;SDS011;29882;46.356;17.798;2022-08-30T09:26:26;8.75;;;7.82;;
44212;SDS011;29882;46.356;17.798;2022-08-30T09:29:01;11.02;;;8.90;;
44212;SDS011;29882;46.356;17.798;2022-08-30T09:31:32;8.60;;;7.57;;
44212;SDS011;29882;46.356;17.798;2022-08-30T09:36:44;8.60;;;6.70;;
44212;SDS011;29882;46.356;17.798;2022-08-30T09:42:18;7.32;;;6.38;;
44212;SDS011;29882;46.356;17.798;2022-08-30T09:44:50;11.73;;;6.35;;
44212;SDS011;29882;46.356;17.798;2022-08-30T09:47:22;8.18;;;5.93;;
44212;SDS011;29882;46.356;17.798;2022-08-30T09:50:08;8.20;;;5.95;;
44212;SDS011;29882;46.356;17.798;2022-08-30T10:00:19;7.82;;;6.20;;
44212;SDS011;29882;46.356;17.798;2022-08-30T10:08:56;7.25;;;6.55;;
44212;SDS011;29882;46.356;17.798;2022-08-30T10:12:04;8.00;;;6.35;;
44212;SDS011;29882;46.356;17.798;2022-08-30T10:14:37;10.40;;;6.43;;
44212;SDS011;29882;46.356;17.798;2022-08-30T10:20:05;11.68;;;6.03;;
44212;SDS011;29882;46.356;17.798;2022-08-30T10:22:42;7.57;;;6.38;;
44212;SDS011;29882;46.356;17.798;2022-08-30T10:25:23;6.60;;;6.00;;
44212;SDS011;29882;46.356;17.798;2022-08-30T10:28:16;6.88;;;6.13;;
44212;SDS011;29882;46.356;17.798;2022-08-30T10:33:55;6.75;;;5.80;;
44212;SDS011;29882;46.356;17.798;2022-08-30T10:36:46;8.88;;;6.25;;
44212;SDS011;29882;46.356;17.798;2022-08-30T10:39:21;7.22;;;5.97;;
44212;SDS011;29882;46.356;17.798;2022-08-30T10:42:04;6.30;;;5.47;;
44212;SDS011;29882;46.356;17.798;2022-08-30T10:44:38;6.20;;;5.60;;
44212;SDS011;29882;46.356;17.798;2022-08-30T10:50:04;8.52;;;7.60;;
44212;SDS011;29882;46.356;17.798;2022-08-30T10:53:31;6.80;;;5.60;;
44212;SDS011;29882;46.356;17.798;2022-08-30T10:55:49;6.68;;;5.68;;
44212;SDS011;29882;46.356;17.798;2022-08-30T10:58:20;6.72;;;5.82;;
44212;SDS011;29882;46.356;17.798;2022-08-30T11:00:56;6.78;;;5.50;;
44212;SDS011;29882;46.356;17.798;2022-08-30T11:06:11;7.72;;;5.93;;
44212;SDS011;29882;46.356;17.798;2022-08-30T11:14:24;9.20;;;5.95;;
44212;SDS011;29882;46.356;17.798;2022-08-30T11:16:53;8.40;;;6.13;;
44212;SDS011;29882;46.356;17.798;2022-08-30T11:19:27;6.40;;;5.78;;
44212;SDS011;29882;46.356;17.798;2022-08-30T11:25:01;6.10;;;5.45;;
44212;SDS011;29882;46.356;17.798;2022-08-30T11:27:38;8.50;;;5.13;;
44212;SDS011;29882;46.356;17.798;2022-08-30T11:33:03;7.60;;;5.43;;
44212;SDS011;29882;46.356;17.798;2022-08-30T12:00:26;7.45;;;5.68;;
44212;SDS011;29882;46.356;17.798;2022-08-30T12:08:05;5.88;;;5.28;;
44212;SDS011;29882;46.356;17.798;2022-08-30T12:10:44;6.40;;;5.80;;
44212;SDS011;29882;46.356;17.798;2022-08-30T12:16:04;7.40;;;5.63;;
44212;SDS011;29882;46.356;17.798;2022-08-30T12:18:47;6.63;;;4.80;;
44212;SDS011;29882;46.356;17.798;2022-08-30T12:31:53;5.53;;;5.00;;
44212;SDS011;29882;46.356;17.798;2022-08-30T12:34:26;6.18;;;4.97;;
44212;SDS011;29882;46.356;17.798;2022-08-30T14:31:14;6.07;;;4.23;;
44212;SDS011;29882;46.356;17.798;2022-08-30T14:33:45;4.85;;;4.43;;
44212;SDS011;29882;46.356;17.798;2022-08-30T14:36:12;7.10;;;5.18;;
44212;SDS011;29882;46.356;17.798;2022-08-30T14:38:41;7.45;;;5.00;;
44212;SDS011;29882;46.356;17.798;2022-08-30T14:41:10;6.97;;;4.90;;
